createdAt,value
2023-03-01T00:01:06.855Z,52.50
2023-03-01T00:03:34.756Z,55.50
2023-03-01T00:06:02.403Z,58.00
2023-03-01T00:08:29.764Z,51.00
2023-03-01T00:11:11.356Z,46.00
2023-03-01T00:13:38.403Z,46.25
2023-03-01T00:16:06.833Z,45.00
2023-03-01T00:18:34.293Z,37.50
2023-03-01T00:21:01.464Z,50.75
2023-03-01T00:23:28.903Z,35.75
2023-03-01T00:25:56.058Z,32.50
2023-03-01T00:28:23.110Z,31.25
2023-03-01T00:30:50.155Z,27.00
2023-03-01T00:33:17.134Z,19.00
2023-03-01T00:35:44.082Z,24.00
2023-03-01T00:38:11.088Z,20.33
2023-03-01T00:40:38.213Z,26.50
2023-03-01T00:43:05.799Z,32.75
2023-03-01T00:45:34.119Z,29.00
2023-03-01T00:48:01.122Z,33.50
2023-03-01T00:50:28.094Z,54.25
2023-03-01T00:52:56.485Z,49.00
2023-03-01T00:55:24.766Z,62.75
2023-03-01T00:57:51.894Z,65.25
2023-03-01T01:00:20.328Z,52.50
2023-03-01T01:02:47.986Z,58.00
2023-03-01T01:05:15.911Z,46.50
2023-03-01T01:07:42.855Z,41.75
2023-03-01T01:10:14.075Z,65.00
2023-03-01T01:12:40.981Z,69.00
2023-03-01T01:15:08.400Z,63.75
2023-03-01T01:17:35.314Z,66.00
2023-03-01T01:20:02.474Z,60.75
2023-03-01T01:22:29.457Z,65.75
2023-03-01T01:24:56.425Z,67.50
2023-03-01T01:27:23.405Z,63.75
2023-03-01T01:29:50.344Z,66.00
2023-03-01T01:32:17.343Z,62.00
2023-03-01T01:34:44.314Z,60.50
2023-03-01T01:37:11.206Z,61.50
2023-03-01T01:39:38.118Z,66.75
2023-03-01T01:42:05.079Z,57.25
2023-03-01T01:44:32.073Z,48.75
2023-03-01T01:47:23.400Z,49.50
2023-03-01T01:49:55.122Z,62.00
2023-03-01T01:52:37.103Z,59.25
2023-03-01T01:55:12.480Z,48.25
2023-03-01T01:57:44.952Z,47.50
2023-03-01T02:00:20.003Z,60.50
2023-03-01T02:02:50.375Z,53.00
2023-03-01T02:05:26.206Z,48.75
2023-03-01T02:07:53.444Z,60.00
2023-03-01T02:10:32.860Z,48.25
2023-03-01T02:13:17.804Z,53.00
2023-03-01T02:15:59.622Z,48.00
2023-03-01T02:18:41.942Z,49.00
2023-03-01T02:21:56.900Z,37.00
2023-03-01T02:25:15.742Z,52.00
2023-03-01T02:27:56.296Z,48.25
2023-03-01T02:30:25.670Z,66.75
2023-03-01T02:33:03.948Z,65.00
2023-03-01T02:35:38.484Z,58.75
2023-03-01T02:38:10.140Z,51.00
2023-03-01T02:40:39.432Z,48.75
2023-03-01T02:43:10.206Z,52.00
2023-03-01T02:45:37.107Z,57.00
2023-03-01T02:48:04.189Z,54.00
2023-03-01T02:50:31.106Z,54.75
2023-03-01T02:53:19.395Z,48.75
2023-03-01T02:55:46.423Z,39.50
2023-03-01T02:58:13.684Z,47.75
2023-03-01T03:00:50.128Z,40.25
2023-03-01T03:03:19.275Z,38.00
2023-03-01T03:05:46.392Z,55.75
2023-03-01T03:08:13.754Z,59.00
2023-03-01T03:10:42.059Z,63.25
2023-03-01T03:13:13.393Z,58.50
2023-03-01T03:15:41.830Z,51.50
2023-03-01T03:18:11.878Z,56.00
2023-03-01T03:20:42.132Z,58.75
2023-03-01T03:23:09.519Z,47.25
2023-03-01T03:25:39.090Z,60.00
2023-03-01T03:28:10.895Z,58.00
2023-03-01T03:30:41.914Z,46.75
2023-03-01T03:33:13.007Z,47.50
2023-03-01T03:35:44.252Z,42.50
2023-03-01T03:38:19.210Z,34.25
2023-03-01T03:40:48.946Z,24.50
2023-03-01T03:43:21.325Z,40.75
2023-03-01T03:45:49.999Z,51.50
2023-03-01T03:48:18.358Z,44.00
2023-03-01T03:50:50.688Z,49.75
2023-03-01T03:53:17.679Z,63.50
2023-03-01T03:55:45.714Z,69.50
2023-03-01T03:58:12.687Z,62.00
2023-03-01T04:00:45.094Z,58.25
2023-03-01T04:03:13.842Z,47.00
2023-03-01T04:05:42.113Z,48.50
2023-03-01T04:08:10.669Z,49.00
2023-03-01T04:10:40.413Z,52.50
2023-03-01T04:13:10.427Z,63.00
2023-03-01T04:15:37.513Z,53.00
2023-03-01T04:18:04.732Z,39.25
2023-03-01T04:20:35.853Z,48.00
2023-03-01T04:23:14.543Z,43.50
2023-03-01T04:25:50.640Z,49.00
2023-03-01T04:28:18.011Z,51.00
2023-03-01T04:30:45.073Z,42.25
2023-03-01T04:33:12.919Z,36.50
2023-03-01T04:35:40.313Z,30.75
2023-03-01T04:38:08.254Z,38.50
2023-03-01T04:40:36.218Z,42.75
2023-03-01T04:43:04.426Z,37.25
2023-03-01T04:45:33.187Z,25.00
2023-03-01T04:48:00.435Z,40.50
2023-03-01T04:50:27.557Z,32.75
2023-03-01T04:52:54.904Z,25.50
2023-03-01T04:55:22.494Z,21.00
2023-03-01T04:57:49.745Z,27.50
2023-03-01T05:00:22.990Z,49.75
2023-03-01T05:03:01.955Z,43.50
2023-03-01T05:05:32.676Z,48.25
2023-03-01T05:08:02.332Z,28.50
2023-03-01T05:10:31.760Z,28.25
2023-03-01T05:12:59.847Z,39.25
2023-03-01T05:15:31.890Z,44.25
2023-03-01T05:18:00.920Z,41.75
2023-03-01T05:20:29.841Z,42.50
2023-03-01T05:23:06.477Z,32.25
2023-03-01T05:25:35.321Z,36.25
2023-03-01T05:28:05.553Z,34.00
2023-03-01T05:30:35.678Z,27.00
2023-03-01T05:33:03.107Z,16.50
2023-03-01T05:35:30.799Z,19.00
2023-03-01T05:37:57.789Z,48.50
2023-03-01T05:40:25.575Z,41.00
2023-03-01T05:42:57.425Z,60.00
2023-03-01T05:45:26.310Z,55.50
2023-03-01T05:47:54.072Z,58.50
2023-03-01T05:50:23.248Z,66.00
2023-03-01T05:53:00.756Z,69.50
2023-03-01T05:55:29.235Z,60.25
2023-03-01T05:57:56.863Z,62.25
2023-03-01T06:00:23.842Z,61.50
2023-03-01T06:02:51.224Z,49.50
2023-03-01T06:05:18.150Z,48.75
2023-03-01T06:07:45.326Z,48.00
2023-03-01T06:10:14.699Z,44.00
2023-03-01T06:12:43.505Z,56.50
2023-03-01T06:15:11.965Z,50.50
2023-03-01T06:17:41.798Z,43.25
2023-03-01T06:20:15.699Z,42.75
2023-03-01T06:22:43.382Z,39.50
2023-03-01T06:25:11.907Z,39.00
2023-03-01T06:27:38.792Z,54.00
2023-03-01T06:30:06.410Z,52.00
2023-03-01T06:32:33.368Z,69.50
2023-03-01T06:35:00.276Z,66.00
2023-03-01T06:37:27.440Z,48.75
2023-03-01T06:39:54.359Z,54.25
2023-03-01T06:42:21.363Z,47.00
2023-03-01T06:44:48.328Z,52.50
2023-03-01T06:47:15.291Z,49.00
2023-03-01T06:49:42.711Z,45.00
2023-03-01T06:52:09.642Z,57.75
2023-03-01T06:54:36.614Z,64.00
2023-03-01T06:57:03.753Z,49.00
2023-03-01T06:59:30.820Z,47.25
2023-03-01T07:01:57.733Z,49.00
2023-03-01T07:04:24.669Z,46.50
2023-03-01T07:06:56.350Z,51.00
2023-03-01T07:09:24.594Z,44.00
2023-03-01T07:11:51.999Z,35.75
2023-03-01T07:14:19.093Z,40.50
2023-03-01T07:16:46.064Z,49.50
2023-03-01T07:19:12.933Z,48.00
2023-03-01T07:21:39.954Z,53.75
2023-03-01T07:24:08.260Z,48.75
2023-03-01T07:26:35.211Z,38.00
2023-03-01T07:29:04.632Z,41.50
2023-03-01T07:31:32.024Z,31.00
2023-03-01T07:33:59.108Z,33.67
2023-03-01T07:36:26.349Z,32.00
2023-03-01T07:38:53.390Z,29.67
2023-03-01T07:41:20.392Z,38.00
2023-03-01T07:43:47.317Z,36.33
2023-03-01T07:46:14.456Z,39.33
2023-03-01T07:48:41.379Z,43.33
2023-03-01T07:51:09.247Z,43.33
2023-03-01T07:53:36.260Z,38.00
2023-03-01T07:56:04.676Z,41.33
2023-03-01T07:58:31.600Z,45.67
2023-03-01T08:01:05.215Z,39.67
2023-03-01T08:03:32.867Z,36.33
2023-03-01T08:06:05.236Z,45.00
2023-03-01T08:08:32.570Z,58.00
2023-03-01T08:11:01.361Z,58.50
2023-03-01T08:13:28.502Z,60.50
2023-03-01T08:15:55.455Z,63.75
2023-03-01T08:18:22.989Z,61.00
2023-03-01T08:20:49.886Z,60.50
2023-03-01T08:23:17.107Z,58.50
2023-03-01T08:25:44.156Z,62.25
2023-03-01T08:28:11.146Z,57.00
2023-03-01T08:30:38.084Z,56.00
2023-03-01T08:33:05.142Z,62.25
2023-03-01T08:35:32.060Z,65.00
2023-03-01T08:37:59.071Z,62.00
2023-03-01T08:40:26.025Z,49.33
2023-03-01T08:42:53.076Z,51.00
2023-03-01T08:45:19.961Z,56.33
2023-03-01T08:47:46.895Z,47.33
2023-03-01T08:50:13.868Z,50.33
2023-03-01T08:52:40.952Z,44.33
2023-03-01T08:55:08.633Z,46.00
2023-03-01T08:57:35.545Z,46.33
2023-03-01T09:00:02.475Z,40.33
2023-03-01T09:02:29.477Z,31.67
2023-03-01T09:04:56.395Z,35.00
2023-03-01T09:07:23.313Z,30.33
2023-03-01T09:09:50.279Z,40.00
2023-03-01T09:12:17.261Z,39.00
2023-03-01T09:14:44.152Z,30.00
2023-03-01T09:17:11.269Z,27.67
2023-03-01T09:19:38.331Z,35.00
2023-03-01T09:22:05.963Z,28.33
2023-03-01T09:24:32.892Z,27.33
2023-03-01T09:26:59.819Z,34.67
2023-03-01T09:29:27.244Z,25.33
2023-03-01T09:31:56.528Z,26.33
2023-03-01T09:34:24.600Z,34.00
2023-03-01T09:36:52.419Z,30.00
2023-03-01T09:39:19.642Z,36.67
2023-03-01T09:41:50.046Z,30.33
2023-03-01T09:44:40.469Z,38.00
2023-03-01T09:47:18.865Z,34.00
2023-03-01T09:49:57.709Z,35.33
2023-03-01T09:53:00.098Z,31.00
2023-03-01T09:55:32.691Z,35.00
2023-03-01T09:58:10.159Z,38.00
2023-03-01T10:00:43.401Z,49.00
2023-03-01T10:03:14.117Z,50.33
2023-03-01T10:05:50.188Z,45.33
2023-03-01T10:08:37.554Z,46.33
2023-03-01T10:11:19.652Z,47.33
2023-03-01T10:13:50.320Z,44.00
2023-03-01T10:16:23.123Z,46.33
2023-03-01T10:18:57.153Z,41.67
2023-03-01T10:21:24.555Z,42.00
2023-03-01T10:23:54.649Z,48.00
2023-03-01T10:26:41.337Z,50.67
2023-03-01T10:29:13.086Z,51.33
2023-03-01T10:31:44.150Z,46.00
2023-03-01T10:34:37.500Z,45.33
2023-03-01T10:37:16.529Z,40.00
2023-03-01T10:40:02.197Z,46.33
2023-03-01T10:42:44.628Z,50.33
2023-03-01T10:45:31.415Z,50.33
2023-03-01T10:48:17.072Z,45.33
2023-03-01T10:50:46.782Z,49.33
2023-03-01T10:53:30.801Z,56.00
2023-03-01T10:56:00.977Z,53.33
2023-03-01T10:58:30.236Z,51.00
2023-03-01T11:01:05.327Z,54.33
2023-03-01T11:03:39.980Z,43.67
2023-03-01T11:06:12.882Z,44.33
2023-03-01T11:08:44.135Z,46.67
2023-03-01T11:11:11.050Z,48.67
2023-03-01T11:13:47.899Z,53.00
2023-03-01T11:16:14.833Z,55.00
2023-03-01T11:18:48.095Z,49.67
2023-03-01T11:21:16.990Z,54.67
2023-03-01T11:23:47.844Z,49.33
2023-03-01T11:26:19.207Z,55.00
2023-03-01T11:28:53.214Z,50.00
2023-03-01T11:31:20.877Z,52.67
2023-03-01T11:34:09.041Z,42.33
2023-03-01T11:36:41.936Z,32.75
2023-03-01T11:39:45.075Z,42.67
2023-03-01T11:42:21.637Z,39.67
2023-03-01T11:44:55.349Z,43.00
2023-03-01T11:47:42.785Z,40.25
2023-03-01T11:50:27.993Z,40.00
2023-03-01T11:53:04.048Z,42.33
2023-03-01T11:55:53.159Z,39.33
2023-03-01T11:58:46.272Z,42.33
2023-03-01T12:01:42.567Z,43.67
2023-03-01T12:04:31.536Z,43.00
2023-03-01T12:07:02.136Z,36.75
2023-03-01T12:09:56.657Z,32.50
2023-03-01T12:12:39.946Z,37.25
2023-03-01T12:15:29.361Z,37.00
2023-03-01T12:18:09.798Z,35.50
2023-03-01T12:21:00.965Z,39.25
2023-03-01T12:23:53.476Z,37.00
2023-03-01T12:26:41.703Z,38.00
2023-03-01T12:29:34.975Z,34.50
2023-03-01T12:32:13.713Z,42.00
2023-03-01T12:34:55.703Z,38.75
2023-03-01T12:37:34.498Z,35.25
2023-03-01T12:40:17.768Z,27.50
2023-03-01T12:43:03.182Z,31.25
2023-03-01T12:45:45.246Z,34.25
2023-03-01T12:48:21.750Z,34.75
2023-03-01T12:51:00.923Z,40.50
2023-03-01T12:53:33.327Z,39.50
2023-03-01T12:56:06.793Z,39.25
2023-03-01T12:58:49.189Z,38.00
2023-03-01T13:01:44.810Z,37.25
2023-03-01T13:04:22.479Z,32.25
2023-03-01T13:07:04.382Z,37.00
2023-03-01T13:09:50.653Z,34.50
2023-03-01T13:13:03.338Z,26.75
2023-03-01T13:15:35.972Z,26.25
2023-03-01T13:18:26.599Z,25.75
2023-03-01T13:21:02.435Z,25.00
2023-03-01T13:23:34.186Z,27.75
2023-03-01T13:26:13.163Z,18.75
2023-03-01T13:28:47.880Z,16.25
2023-03-01T13:31:17.505Z,14.00
2023-03-01T13:33:50.655Z,19.75
2023-03-01T13:36:30.626Z,14.00
2023-03-01T13:39:01.277Z,17.50
2023-03-01T13:41:40.464Z,14.25
2023-03-01T13:44:28.148Z,16.75
2023-03-01T13:46:59.042Z,21.25
2023-03-01T13:49:45.454Z,17.00
2023-03-01T13:52:45.068Z,21.50
2023-03-01T13:55:22.168Z,28.25
2023-03-01T13:57:59.042Z,27.25
2023-03-01T14:00:30.343Z,23.00
2023-03-01T14:03:10.457Z,17.50
2023-03-01T14:05:38.409Z,20.00
2023-03-01T14:08:07.020Z,22.25
2023-03-01T14:11:00.233Z,19.00
2023-03-01T14:14:04.308Z,17.25
2023-03-01T14:16:55.739Z,19.00
2023-03-01T14:19:34.671Z,29.25
2023-03-01T14:22:20.700Z,23.00
2023-03-01T14:25:03.520Z,19.25
2023-03-01T14:27:43.351Z,16.25
2023-03-01T14:30:23.251Z,27.00
2023-03-01T14:33:00.353Z,24.00
2023-03-01T14:35:31.344Z,21.50
2023-03-01T14:37:59.079Z,20.00
2023-03-01T14:40:33.811Z,20.50
2023-03-01T14:43:03.464Z,20.50
2023-03-01T14:45:34.420Z,23.00
2023-03-01T14:48:04.570Z,19.50
2023-03-01T14:50:41.451Z,14.25
2023-03-01T14:53:17.639Z,10.00
2023-03-01T14:55:57.234Z,9.50
2023-03-01T14:58:26.349Z,5.00
2023-03-01T15:00:56.780Z,5.00
2023-03-01T15:03:38.285Z,9.75
2023-03-01T15:06:07.851Z,13.00
2023-03-01T15:08:36.779Z,12.00
2023-03-01T15:11:14.877Z,13.25
2023-03-01T15:13:42.348Z,9.25
2023-03-01T15:16:14.982Z,14.75
2023-03-01T15:18:48.130Z,14.50
2023-03-01T15:21:37.580Z,17.00
2023-03-01T15:24:12.949Z,13.50
2023-03-01T15:26:46.959Z,20.00
2023-03-01T15:29:19.720Z,14.75
2023-03-01T15:31:57.732Z,36.00
2023-03-01T15:34:30.336Z,36.50
2023-03-01T15:37:00.351Z,34.50
2023-03-01T15:39:38.732Z,21.25
2023-03-01T15:42:08.697Z,25.25
2023-03-01T15:44:43.615Z,17.75
2023-03-01T15:47:49.535Z,18.25
2023-03-01T15:50:23.619Z,28.00
2023-03-01T15:52:51.223Z,22.25
2023-03-01T15:55:24.242Z,18.75
2023-03-01T15:58:01.656Z,37.50
2023-03-01T16:00:30.166Z,55.33
2023-03-01T16:02:57.535Z,61.67
2023-03-01T16:05:27.446Z,62.00
2023-03-01T16:07:55.368Z,72.50
2023-03-01T16:10:23.415Z,62.00
2023-03-01T16:12:53.729Z,51.33
2023-03-01T16:15:31.158Z,41.00
2023-03-01T16:18:01.889Z,35.00
2023-03-01T16:20:33.470Z,31.00
2023-03-01T16:23:06.951Z,40.67
2023-03-01T16:25:34.991Z,37.25
2023-03-01T16:28:06.143Z,30.25
2023-03-01T16:30:33.902Z,22.00
2023-03-01T16:33:02.237Z,15.75
2023-03-01T16:35:30.385Z,22.50
2023-03-01T16:37:57.669Z,24.25
2023-03-01T16:40:27.984Z,15.00
2023-03-01T16:43:00.565Z,12.75
2023-03-01T16:45:30.116Z,16.25
2023-03-01T16:47:57.154Z,18.75
2023-03-01T16:50:24.335Z,18.25
2023-03-01T16:52:51.298Z,7.00
2023-03-01T16:55:18.681Z,24.75
2023-03-01T16:57:45.573Z,22.00
2023-03-01T17:00:15.134Z,32.00
2023-03-01T17:02:43.393Z,29.33
2023-03-01T17:05:13.307Z,51.00
2023-03-01T17:07:40.961Z,52.33
2023-03-01T17:10:11.387Z,52.67
2023-03-01T17:12:38.792Z,46.00
2023-03-01T17:15:07.991Z,45.33
2023-03-01T17:17:35.908Z,33.67
2023-03-01T17:20:04.926Z,28.67
2023-03-01T17:22:32.060Z,32.67
2023-03-01T17:24:59.007Z,32.33
2023-03-01T17:27:26.030Z,28.33
2023-03-01T17:29:52.943Z,23.33
2023-03-01T17:32:20.190Z,34.33
2023-03-01T17:34:47.224Z,33.67
2023-03-01T17:37:14.284Z,41.67
2023-03-01T17:39:41.247Z,42.33
2023-03-01T17:42:08.274Z,39.00
2023-03-01T17:44:35.251Z,39.67
2023-03-01T17:47:03.858Z,40.67
2023-03-01T17:49:31.441Z,33.33
2023-03-01T17:51:58.897Z,33.33
2023-03-01T17:54:26.124Z,33.00
2023-03-01T17:56:53.472Z,21.33
2023-03-01T17:59:20.439Z,17.67
2023-03-01T18:01:47.720Z,22.00
2023-03-01T18:04:14.735Z,17.00
2023-03-01T18:06:42.067Z,23.33
2023-03-01T18:09:09.174Z,20.67
2023-03-01T18:11:36.837Z,16.67
2023-03-01T18:14:04.838Z,11.00
2023-03-01T18:16:34.403Z,8.00
2023-03-01T18:19:02.432Z,8.00
2023-03-01T18:21:30.972Z,10.33
2023-03-01T18:24:02.288Z,2.00
2023-03-01T18:26:30.138Z,4.67
2023-03-01T18:28:58.539Z,13.00
2023-03-01T18:31:26.762Z,29.00
2023-03-01T18:33:55.894Z,25.33
2023-03-01T18:36:26.299Z,20.33
2023-03-01T18:38:56.466Z,19.00
2023-03-01T18:41:28.145Z,15.33
2023-03-01T18:43:57.284Z,16.33
2023-03-01T18:46:24.679Z,41.00
2023-03-01T18:48:53.858Z,33.33
2023-03-01T18:51:23.559Z,18.67
2023-03-01T18:53:50.733Z,23.33
2023-03-01T18:56:17.777Z,17.00
2023-03-01T18:58:45.034Z,12.00
2023-03-01T19:01:17.566Z,26.00
2023-03-01T19:03:44.748Z,33.67
2023-03-01T19:06:11.659Z,34.67
2023-03-01T19:08:41.249Z,29.00
2023-03-01T19:11:09.682Z,23.33
2023-03-01T19:13:38.759Z,21.00
2023-03-01T19:16:13.206Z,20.00
2023-03-01T19:18:42.602Z,25.67
2023-03-01T19:21:13.812Z,18.67
2023-03-01T19:23:40.700Z,21.00
2023-03-01T19:26:13.826Z,25.00
2023-03-01T19:28:42.739Z,13.67
2023-03-01T19:31:12.704Z,12.67
2023-03-01T19:33:43.065Z,8.00
2023-03-01T19:36:12.466Z,26.33
2023-03-01T19:38:41.420Z,33.67
2023-03-01T19:41:11.264Z,34.33
2023-03-01T19:43:38.418Z,33.67
2023-03-01T19:46:05.543Z,30.00
2023-03-01T19:48:32.496Z,32.00
2023-03-01T19:50:59.579Z,30.33
2023-03-01T19:53:26.849Z,19.33
2023-03-01T19:56:01.370Z,13.33
2023-03-01T19:58:29.920Z,13.33
2023-03-01T20:00:59.094Z,41.67
2023-03-01T20:03:27.068Z,51.50
2023-03-01T20:05:54.163Z,49.00
2023-03-01T20:08:21.121Z,52.00
2023-03-01T20:10:48.052Z,48.00
2023-03-01T20:13:15.176Z,53.75
2023-03-01T20:15:44.086Z,55.75
2023-03-01T20:18:14.229Z,57.00
2023-03-01T20:20:41.449Z,53.75
2023-03-01T20:23:08.403Z,55.75
2023-03-01T20:25:35.344Z,44.75
2023-03-01T20:28:02.279Z,37.00
2023-03-01T20:30:29.176Z,35.00
2023-03-01T20:32:56.088Z,53.50
2023-03-01T20:35:23.572Z,61.00
2023-03-01T20:37:53.850Z,52.75
2023-03-01T20:40:21.941Z,42.50
2023-03-01T20:42:48.927Z,33.33
2023-03-01T20:45:16.543Z,24.00
2023-03-01T20:47:43.867Z,23.00
2023-03-01T20:50:11.639Z,32.67
2023-03-01T20:52:47.105Z,55.25
2023-03-01T20:55:14.652Z,58.25
2023-03-01T20:57:42.244Z,45.25
2023-03-01T21:00:10.469Z,41.50
2023-03-01T21:02:38.959Z,33.00
2023-03-01T21:05:06.875Z,67.00
2023-03-01T21:07:33.829Z,62.50
2023-03-01T21:10:00.870Z,61.25
2023-03-01T21:12:27.779Z,72.00
2023-03-01T21:14:54.758Z,76.25
2023-03-01T21:17:21.669Z,73.00
2023-03-01T21:19:49.979Z,79.75
2023-03-01T21:22:17.652Z,75.75
2023-03-01T21:24:45.180Z,77.50
2023-03-01T21:27:12.310Z,94.50
2023-03-01T21:29:41.692Z,95.75
2023-03-01T21:32:10.172Z,106.25
2023-03-01T21:34:38.453Z,97.50
2023-03-01T21:37:06.521Z,84.50
2023-03-01T21:39:34.290Z,85.50
2023-03-01T21:42:03.284Z,78.25
2023-03-01T21:44:31.820Z,72.50
2023-03-01T21:46:59.487Z,71.00
2023-03-01T21:49:27.309Z,53.25
2023-03-01T21:51:54.347Z,53.75
2023-03-01T21:54:21.597Z,70.00
2023-03-01T21:56:49.116Z,69.50
2023-03-01T21:59:19.144Z,61.00
2023-03-01T22:01:47.511Z,70.00
2023-03-01T22:04:15.762Z,59.75
2023-03-01T22:06:45.954Z,58.00
2023-03-01T22:09:19.416Z,54.00
2023-03-01T22:11:51.905Z,53.75
2023-03-01T22:14:19.619Z,71.00
2023-03-01T22:16:48.027Z,72.50
2023-03-01T22:19:17.551Z,73.00
2023-03-01T22:21:49.388Z,76.00
2023-03-01T22:24:19.080Z,75.75
2023-03-01T22:26:50.339Z,69.00
2023-03-01T22:29:22.411Z,73.00
2023-03-01T22:31:49.871Z,72.75
2023-03-01T22:34:17.391Z,76.75
2023-03-01T22:36:45.278Z,71.00
2023-03-01T22:39:14.828Z,73.50
2023-03-01T22:41:45.679Z,70.00
2023-03-01T22:44:14.561Z,69.75
2023-03-01T22:46:41.878Z,64.25
2023-03-01T22:49:10.189Z,54.75
2023-03-01T22:51:40.042Z,49.25
2023-03-01T22:54:10.683Z,48.00
2023-03-01T22:56:38.715Z,43.75
2023-03-01T22:59:11.367Z,57.25
2023-03-01T23:01:41.345Z,88.50
2023-03-01T23:04:11.536Z,83.25
2023-03-01T23:06:50.875Z,89.75
2023-03-01T23:09:23.948Z,76.00
2023-03-01T23:11:51.622Z,74.50
2023-03-01T23:14:19.663Z,65.50
2023-03-01T23:16:46.839Z,79.00
2023-03-01T23:19:13.918Z,92.50
2023-03-01T23:21:46.446Z,74.75
2023-03-01T23:24:18.871Z,75.50
2023-03-01T23:26:46.061Z,87.50
2023-03-01T23:29:13.017Z,70.50
2023-03-01T23:31:40.250Z,77.50
2023-03-01T23:34:07.140Z,81.25
2023-03-01T23:36:35.354Z,75.00
2023-03-01T23:39:05.353Z,67.25
2023-03-01T23:41:34.039Z,72.00
2023-03-01T23:44:02.754Z,82.00
2023-03-01T23:46:32.992Z,79.00
2023-03-01T23:49:00.706Z,64.00
2023-03-01T23:51:28.166Z,60.50
2023-03-01T23:54:00.238Z,56.00
2023-03-01T23:56:36.256Z,48.25
2023-03-01T23:59:06.567Z,48.25
